This is the latest recevied weather packets stored in our database for station/object KB9MLJ. If no packets are shown the sender has not sent any weather packets the latest 10 day(s).
| Time | Temp. | Humidity | Pressure | Rain* | Wind** | Luminosity | Snow |
|---|---|---|---|---|---|---|---|
| 1777305387 | 14.44° C | 94% | 1009.2 hPa | 1.02 mm | - | 46 W/m² | - |
| 1777305082 | 14.44° C | 93% | 1009.5 hPa | 0.76 mm | - | 52 W/m² | - |
| 1777304782 | 14.44° C | 92% | 1009.5 hPa | 0.76 mm | - | 55 W/m² | - |
| 1777304480 | 14.44° C | 91% | 1009.9 hPa | 0.51 mm | - | 29 W/m² | - |
| 1777304177 | 15° C | 90% | 1010.2 hPa | 0.25 mm | - | 11 W/m² | - |
| 1777303874 | 15° C | 89% | 1009.9 hPa | 0.25 mm | - | 45 W/m² | - |
| 1777303571 | 15.56° C | 87% | 1009.9 hPa | 0 mm | - | 39 W/m² | - |
| 1777303268 | 15.56° C | 84% | 1009.9 hPa | 0 mm | - | 49 W/m² | - |
| 1777302966 | 15.56° C | 83% | 1010.2 hPa | 0 mm | - | 39 W/m² | - |
| 1777302662 | 15.56° C | 84% | 1009.5 hPa | 0 mm | - | 56 W/m² | - |
| 1777302361 | 15.56° C | 84% | 1009.5 hPa | 0 mm | - | 74 W/m² | - |
| 1777302058 | 15.56° C | 84% | 1009.5 hPa | 0.25 mm | - | 77 W/m² | - |
| 1777301756 | 15.56° C | 84% | 1009.5 hPa | 0.25 mm | - | 90 W/m² | - |
| 1777301453 | 15.56° C | 84% | 1009.2 hPa | 0.25 mm | - | 126 W/m² | - |
| 1777301150 | 15° C | 85% | 1009.2 hPa | 0 mm | - | 140 W/m² | - |
| 1777300847 | 15° C | 86% | 1009.2 hPa | 0 mm | - | 131 W/m² | - |
| 1777300545 | 15° C | 86% | 1009.5 hPa | 0 mm | - | 118 W/m² | - |
| 1777300242 | 14.44° C | 87% | 1009.5 hPa | 0 mm | - | 103 W/m² | - |
| 1777299938 | 14.44° C | 88% | 1009.9 hPa | 0 mm | - | 103 W/m² | - |
| 1777299635 | 14.44° C | 88% | 1010.2 hPa | 0 mm | - | 97 W/m² | - |
| 1777299334 | 14.44° C | 88% | 1010.2 hPa | 0 mm | - | 58 W/m² | - |
| 1777299031 | 14.44° C | 86% | 1010.2 hPa | 0 mm | - | 50 W/m² | - |
| 1777298728 | 14.44° C | 85% | 1010.5 hPa | 0 mm | - | 49 W/m² | - |
| 1777298424 | 14.44° C | 86% | 1010.5 hPa | 0 mm | - | 29 W/m² | - |
| 1777298121 | 14.44° C | 86% | 1010.2 hPa | 0 mm | - | 31 W/m² | - |
* Rain latest hour (hover to see other rain measurements)
** Current wind speed in m/s (hover to see current wind gust speed)